Time;durP1;ratioP1;P1;durP2;ratioP2;P2;SDS_P1;SDS_P2;PMS_P1;PMS_P2;Temp;Humidity;BMP_temperature;BMP_pressure;BME280_temperature;BME280_humidity;BME280_pressure;Samples;Min_cycle;Max_cycle;Signal;HPM_P1;HPM_P2
2023/04/02 00:01:17;;;;;;;30.00;14.88;;;;;;;14.56;77.58;99766.91;4992196;28;20085;-78
2023/04/02 00:03:52;;;;;;;30.58;15.75;;;;;;;14.44;77.73;99762.03;4955123;28;20117;-78
2023/04/02 00:06:31;;;;;;;28.58;14.98;;;;;;;14.36;79.23;99774.69;4972105;28;20062;-78
2023/04/02 00:09:21;;;;;;;30.15;15.40;;;;;;;14.26;79.99;99769.53;4974602;28;20402;-78
2023/04/02 00:11:54;;;;;;;33.08;16.13;;;;;;;14.17;80.20;99773.06;4957565;28;20054;-78
2023/04/02 00:14:26;;;;;;;30.85;16.48;;;;;;;14.23;81.04;99777.28;4976587;28;20062;-78
2023/04/02 00:16:56;;;;;;;28.42;15.85;;;;;;;14.08;81.40;99769.53;4976678;28;20055;-78
2023/04/02 00:19:34;;;;;;;34.38;16.50;;;;;;;13.98;82.17;99770.63;4975266;28;20047;-78
2023/04/02 00:22:06;;;;;;;27.27;16.02;;;;;;;14.03;82.86;99767.72;4976014;28;20401;-78
2023/04/02 00:24:37;;;;;;;29.98;15.13;;;;;;;13.82;82.92;99781.31;4976341;28;20046;-78
2023/04/02 00:27:09;;;;;;;28.42;16.08;;;;;;;13.70;84.18;99780.00;4976404;28;20438;-78
2023/04/02 00:29:52;;;;;;;31.73;17.13;;;;;;;13.56;84.50;99777.41;4959002;28;20045;-78
2023/04/02 00:32:29;;;;;;;30.05;15.98;;;;;;;13.78;84.09;99780.34;4976056;28;20047;-78
2023/04/02 00:34:59;;;;;;;33.90;17.55;;;;;;;13.91;82.67;99787.63;4976354;28;20490;-79
2023/04/02 00:37:37;;;;;;;30.92;16.33;;;;;;;13.77;83.38;99779.53;4958744;28;20047;-78
2023/04/02 00:40:19;;;;;;;28.77;15.93;;;;;;;13.87;83.57;99780.34;4976170;28;20688;-78
2023/04/02 00:42:48;;;;;;;28.42;16.20;;;;;;;13.76;83.36;99769.66;4975809;28;20057;-78
2023/04/02 00:45:29;;;;;;;26.98;14.80;;;;;;;13.84;83.19;99774.34;4978097;28;20055;-78
2023/04/02 00:48:12;;;;;;;32.70;17.20;;;;;;;13.89;82.65;99772.59;4995400;28;20047;-78
2023/04/02 00:50:43;;;;;;;28.13;15.30;;;;;;;14.03;81.23;99777.94;4978349;28;20061;-78
2023/04/02 00:53:37;;;;;;;28.85;14.32;;;;;;;14.05;80.64;99786.66;4977873;28;20054;-78
2023/04/02 00:56:15;;;;;;;30.83;15.93;;;;;;;14.03;81.68;99788.94;4956534;28;20046;-79
2023/04/02 00:58:44;;;;;;;29.73;15.52;;;;;;;14.03;81.91;99797.19;4958640;28;20059;-79
2023/04/02 01:01:18;;;;;;;27.13;15.43;;;;;;;14.06;81.52;99783.59;4958418;28;20049;-79
2023/04/02 01:03:56;;;;;;;28.52;15.38;;;;;;;13.97;81.31;99794.59;4975687;28;20402;-79
2023/04/02 01:06:29;;;;;;;27.10;15.35;;;;;;;13.98;81.64;99787.97;4974423;28;20069;-79
2023/04/02 01:09:32;;;;;;;29.98;15.40;;;;;;;13.90;82.44;99783.28;4974896;28;20059;-79
2023/04/02 01:12:23;;;;;;;30.83;15.77;;;;;;;13.80;82.90;99786.31;4975354;28;20050;-79
2023/04/02 01:15:17;;;;;;;35.65;17.05;;;;;;;13.60;84.44;99783.06;4975423;28;20065;-79
2023/04/02 01:18:45;;;;;;;31.52;16.27;;;;;;;13.44;85.88;99788.97;4975210;28;20053;-78
2023/04/02 01:21:41;;;;;;;28.63;16.05;;;;;;;13.33;86.43;99773.91;4877615;29;20595;-78
2023/04/02 01:24:13;;;;;;;30.52;15.88;;;;;;;13.25;87.24;99788.41;4859799;29;20062;-78
2023/04/02 01:26:43;;;;;;;31.45;17.00;;;;;;;13.12;87.84;99779.97;4930101;29;20047;-79
2023/04/02 01:29:32;;;;;;;33.28;17.33;;;;;;;13.03;88.46;99781.84;4956433;29;20051;-79
2023/04/02 01:32:04;;;;;;;34.42;17.35;;;;;;;13.01;89.29;99773.94;4959712;28;20038;-78
2023/04/02 01:34:33;;;;;;;32.35;17.20;;;;;;;12.93;89.57;99768.41;4974120;28;20043;-78
2023/04/02 01:37:09;;;;;;;33.22;17.08;;;;;;;12.89;90.05;99776.47;4975071;28;20062;-78
2023/04/02 01:40:05;;;;;;;29.27;16.85;;;;;;;12.89;90.06;99777.28;4975122;28;20058;-78
2023/04/02 01:42:47;;;;;;;32.85;17.00;;;;;;;12.81;89.90;99777.22;4974428;28;20039;-78
2023/04/02 01:45:20;;;;;;;30.45;17.38;;;;;;;12.79;91.61;99783.03;4975077;28;20054;-78
2023/04/02 01:47:50;;;;;;;32.35;17.23;;;;;;;12.70;91.65;99776.69;4972489;28;20413;-78
2023/04/02 01:50:32;;;;;;;34.97;17.58;;;;;;;12.70;91.88;99782.19;4973631;28;20058;-78
2023/04/02 01:53:06;;;;;;;35.30;17.42;;;;;;;12.71;91.83;99781.06;4973400;28;20043;-78
2023/04/02 01:55:48;;;;;;;35.50;19.45;;;;;;;12.84;90.72;99784.81;4957486;28;20406;-78
2023/04/02 01:58:20;;;;;;;35.00;18.15;;;;;;;12.89;89.82;99793.75;4973555;28;20058;-78
2023/04/02 02:01:13;;;;;;;32.75;17.92;;;;;;;12.87;90.14;99796.00;4973315;28;20507;-78
2023/04/02 02:03:43;;;;;;;32.70;18.08;;;;;;;12.89;90.21;99798.44;4973066;28;20050;-78
2023/04/02 02:06:14;;;;;;;31.67;18.10;;;;;;;12.92;89.38;99799.72;4957070;28;20421;-78
2023/04/02 02:08:58;;;;;;;34.65;17.70;;;;;;;12.92;89.56;99805.22;4957212;28;20046;-78
2023/04/02 02:11:29;;;;;;;30.83;17.08;;;;;;;12.92;89.57;99805.22;4957017;28;20058;-78
2023/04/02 02:14:04;;;;;;;33.25;17.70;;;;;;;12.77;89.72;99807.25;4974390;28;20051;-78
2023/04/02 02:16:40;;;;;;;32.00;17.83;;;;;;;12.83;89.87;99811.50;4973005;28;20054;-78
2023/04/02 02:19:31;;;;;;;35.03;18.23;;;;;;;12.79;90.17;99821.47;4957060;28;20046;-78
2023/04/02 02:22:25;;;;;;;34.33;18.50;;;;;;;12.70;90.75;99826.91;4973388;28;20047;-78
2023/04/02 02:24:54;;;;;;;35.35;18.48;;;;;;;12.72;91.18;99826.59;4973856;28;20047;-78
2023/04/02 02:27:45;;;;;;;32.70;19.00;;;;;;;12.53;92.24;99824.84;4974165;28;20494;-78
2023/04/02 02:30:21;;;;;;;36.53;18.38;;;;;;;12.52;92.78;99825.16;4956714;28;20051;-78
2023/04/02 02:32:57;;;;;;;38.78;18.95;;;;;;;12.60;92.45;99840.88;4971953;28;20050;-78
2023/04/02 02:35:41;;;;;;;33.80;18.88;;;;;;;12.41;92.93;99832.84;4972528;28;20043;-78
2023/04/02 02:38:29;;;;;;;34.55;19.42;;;;;;;12.52;92.97;99839.72;4973800;28;20062;-78
2023/04/02 02:41:11;;;;;;;33.95;19.00;;;;;;;12.37;92.99;99843.63;4972434;28;20393;-78
2023/04/02 02:43:46;;;;;;;35.92;19.05;;;;;;;12.34;93.50;99850.53;4973373;28;20693;-78
2023/04/02 02:46:19;;;;;;;36.83;18.65;;;;;;;12.45;92.78;99850.28;4956621;28;20038;-78
2023/04/02 02:48:49;;;;;;;33.03;18.05;;;;;;;12.46;93.55;99855.47;4972657;28;20042;-78
2023/04/02 02:51:26;;;;;;;36.88;19.70;;;;;;;12.47;93.18;99867.28;4956494;28;20057;-78
2023/04/02 02:54:01;;;;;;;33.67;18.52;;;;;;;12.46;93.51;99858.22;4972297;28;20046;-78
2023/04/02 02:56:35;;;;;;;33.25;18.83;;;;;;;12.51;93.91;99860.00;4972385;28;20043;-78
2023/04/02 02:59:07;;;;;;;34.47;18.75;;;;;;;12.76;92.00;99860.53;4956428;28;20051;-78
2023/04/02 03:01:42;;;;;;;35.17;18.73;;;;;;;12.81;92.37;99865.09;4973225;28;20046;-78
2023/04/02 03:04:10;;;;;;;35.88;18.23;;;;;;;12.77;92.40;99864.91;4972313;28;20509;-78
2023/04/02 03:06:40;;;;;;;31.98;18.48;;;;;;;12.93;92.33;99872.75;4956324;28;20051;-78
2023/04/02 03:09:30;;;;;;;36.28;18.17;;;;;;;12.88;92.55;99868.19;4972257;28;20077;-78
2023/04/02 03:12:24;;;;;;;35.10;18.05;;;;;;;12.81;93.23;99865.88;4956283;28;20521;-78
2023/04/02 03:15:20;;;;;;;38.70;19.00;;;;;;;12.93;91.78;99875.50;4973360;28;20136;-78
2023/04/02 03:18:00;;;;;;;36.83;17.70;;;;;;;13.08;90.95;99880.59;4956082;28;20402;-78
2023/04/02 03:20:54;;;;;;;38.47;19.52;;;;;;;13.06;90.67;99882.88;4972080;28;20039;-78
2023/04/02 03:23:26;;;;;;;33.83;17.83;;;;;;;12.94;90.90;99880.69;4955943;28;20043;-78
2023/04/02 03:26:14;;;;;;;32.45;17.33;;;;;;;12.91;89.85;99895.06;4953973;29;20047;-78
2023/04/02 03:28:51;;;;;;;34.47;18.45;;;;;;;12.73;91.70;99883.13;4970068;28;20054;-78
2023/04/02 03:31:28;;;;;;;37.05;18.48;;;;;;;12.63;92.39;99887.72;4955831;28;20051;-78
2023/04/02 03:34:01;;;;;;;37.83;18.35;;;;;;;12.53;93.18;99878.94;4973104;28;20405;-78
2023/04/02 03:36:37;;;;;;;35.97;18.55;;;;;;;12.40;94.88;99880.59;4956330;28;20053;-78
2023/04/02 03:39:16;;;;;;;36.55;19.25;;;;;;;12.58;93.08;99887.88;4957324;28;20051;-78
2023/04/02 03:42:01;;;;;;;32.42;18.55;;;;;;;12.71;93.06;99890.88;4971181;28;20055;-78
2023/04/02 03:44:29;;;;;;;35.72;18.85;;;;;;;12.70;91.69;99892.00;4959854;28;20051;-78
2023/04/02 03:47:07;;;;;;;32.95;18.05;;;;;;;12.68;91.68;99896.97;4959526;28;20053;-78
2023/04/02 03:49:43;;;;;;;35.25;20.17;;;;;;;12.86;91.18;99893.22;4975509;28;20039;-78
2023/04/02 03:52:16;;;;;;;33.60;18.75;;;;;;;12.71;91.81;99896.34;4975891;28;20043;-78
2023/04/02 03:54:44;;;;;;;36.08;18.98;;;;;;;12.54;92.84;99886.84;4975910;28;20042;-78
2023/04/02 03:57:45;;;;;;;33.35;18.58;;;;;;;12.46;94.18;99890.34;4959446;28;20502;-78
2023/04/02 04:00:37;;;;;;;36.85;19.48;;;;;;;12.38;94.67;99893.81;4976530;28;20047;-78
2023/04/02 04:03:16;;;;;;;34.58;19.25;;;;;;;12.35;94.59;99907.03;4959278;28;20054;-78
2023/04/02 04:05:51;;;;;;;34.75;17.27;;;;;;;12.38;94.86;99902.03;4975548;28;20046;-78
2023/04/02 04:08:28;;;;;;;37.80;19.08;;;;;;;12.42;94.66;99914.03;4959280;28;20486;-78
2023/04/02 04:11:00;;;;;;;29.25;17.65;;;;;;;12.49;94.33;99911.66;4976445;28;20418;-78
2023/04/02 04:14:10;;;;;;;37.50;19.33;;;;;;;12.45;94.73;99921.63;4959495;28;20055;-78
2023/04/02 04:17:12;;;;;;;37.20;18.85;;;;;;;12.43;95.04;99923.88;4934292;28;20084;-78
2023/04/02 04:20:13;;;;;;;39.05;19.27;;;;;;;12.33;95.65;99916.69;4958879;28;20050;-78
2023/04/02 04:22:42;;;;;;;42.10;20.85;;;;;;;12.36;95.66;99930.59;4943129;28;20070;-78
2023/04/02 04:25:32;;;;;;;33.80;19.13;;;;;;;12.40;95.17;99935.47;4959186;28;20043;-78
2023/04/02 04:28:37;;;;;;;35.33;19.40;;;;;;;12.38;95.14;99933.03;4958817;28;20055;-78
2023/04/02 04:31:25;;;;;;;37.70;19.08;;;;;;;12.31;95.69;99927.97;4959300;28;20038;-78
2023/04/02 04:34:02;;;;;;;32.72;17.85;;;;;;;12.29;95.58;99930.22;4958916;28;20062;-78
2023/04/02 04:36:53;;;;;;;40.72;19.95;;;;;;;12.28;95.09;99934.09;4974891;28;20046;-78
2023/04/02 04:39:45;;;;;;;38.00;19.30;;;;;;;12.39;95.30;99942.91;4958931;28;20397;-78
2023/04/02 04:42:23;;;;;;;36.08;18.90;;;;;;;12.40;94.70;99947.25;4942510;28;20512;-78
2023/04/02 04:45:02;;;;;;;33.75;18.25;;;;;;;12.51;94.65;99961.56;4974827;28;20083;-78
2023/04/02 04:47:37;;;;;;;34.00;18.70;;;;;;;12.47;94.64;99966.06;4974522;28;20051;-78
2023/04/02 04:50:15;;;;;;;39.72;21.13;;;;;;;12.44;94.14;99966.66;4958961;28;20043;-78
2023/04/02 04:52:46;;;;;;;36.40;18.10;;;;;;;12.50;94.18;99976.41;4958762;28;20394;-78
2023/04/02 04:55:29;;;;;;;37.03;19.25;;;;;;;12.52;94.12;99982.41;4975332;28;20043;-78
2023/04/02 04:58:22;;;;;;;;;;;;;;;12.60;93.79;99986.34;4958908;28;20050;-79
2023/04/02 05:01:10;;;;;;;33.45;18.48;;;;;;;12.45;94.43;100001.22;4949245;28;19926;-79
2023/04/02 05:03:57;;;;;;;35.42;18.92;;;;;;;12.40;94.84;100004.88;4958523;28;20046;-79
2023/04/02 05:06:49;;;;;;;37.78;19.50;;;;;;;12.49;94.27;100007.72;4957632;28;20043;-79
2023/04/02 05:09:41;;;;;;;30.45;16.48;;;;;;;12.43;93.67;100006.19;4957123;28;20047;-79
2023/04/02 05:12:34;;;;;;;30.38;18.10;;;;;;;12.60;93.67;100019.28;4973903;28;20394;-79
2023/04/02 05:15:30;;;;;;;27.75;15.43;;;;;;;12.70;93.79;100016.31;4973674;28;20047;-79
2023/04/02 05:18:35;;;;;;;29.23;15.23;;;;;;;12.77;94.09;100010.41;4957500;28;20047;-85
2023/04/02 05:21:16;;;;;;;30.10;15.27;;;;;;;13.06;91.89;100020.22;4945418;28;20069;-96
2023/04/02 05:24:23;;;;;;;26.95;15.45;;;;;;;13.24;90.54;100017.59;4960702;28;20054;-96
2023/04/02 05:26:59;;;;;;;24.30;13.23;;;;;;;13.48;88.39;100017.28;4942176;28;20378;-96
2023/04/02 05:29:35;;;;;;;24.08;13.75;;;;;;;13.48;88.56;100027.50;4944144;28;20066;-96
2023/04/02 05:32:12;;;;;;;21.23;12.80;;;;;;;13.47;87.75;100026.66;4944265;28;20061;-95
2023/04/02 05:34:47;;;;;;;24.38;12.15;;;;;;;13.55;87.31;100036.09;4944811;28;20429;-96
2023/04/02 05:37:20;;;;;;;17.52;11.68;;;;;;;13.66;86.95;100029.22;4944194;28;20058;-95
2023/04/02 05:40:02;;;;;;;22.83;11.95;;;;;;;13.62;86.96;100032.91;4943735;28;20062;-96
2023/04/02 05:42:34;;;;;;;20.10;11.57;;;;;;;13.64;87.16;100045.22;4943522;28;20058;-95
2023/04/02 05:45:30;;;;;;;23.35;12.88;;;;;;;13.60;88.38;100059.91;4928779;28;20047;-95
2023/04/02 05:48:06;;;;;;;24.08;14.15;;;;;;;13.54;89.38;100064.72;4945030;28;20047;-96
2023/04/02 05:50:46;;;;;;;24.73;12.00;;;;;;;13.66;88.93;100069.66;4946075;28;20086;-96
2023/04/02 05:53:39;;;;;;;21.40;11.55;;;;;;;13.57;90.32;100078.66;4945170;28;20050;-95
2023/04/02 05:56:14;;;;;;;22.05;11.93;;;;;;;13.48;90.64;100080.50;4942882;28;20042;-95
2023/04/02 05:58:50;;;;;;;24.92;12.35;;;;;;;13.41;91.26;100085.59;4943159;28;20057;-93
2023/04/02 06:01:50;;;;;;;26.15;13.50;;;;;;;13.44;92.09;100093.22;4943552;28;20493;-96
2023/04/02 06:04:56;;;;;;;23.50;14.30;;;;;;;13.49;92.30;100097.84;4944061;28;20050;-96
2023/04/02 06:07:40;;;;;;;26.67;14.90;;;;;;;13.22;94.19;100105.00;4931319;29;20502;-91
2023/04/02 06:10:23;;;;;;;25.45;13.77;;;;;;;13.54;92.18;100115.00;4958706;28;20038;-93
2023/04/02 06:13:04;;;;;;;26.42;14.73;;;;;;;13.50;92.27;100110.44;4950638;28;20058;-95
2023/04/02 06:15:37;;;;;;;27.83;15.73;;;;;;;13.48;91.96;100101.72;4943177;29;20047;-95
2023/04/02 06:18:23;;;;;;;26.63;14.35;;;;;;;13.40;92.13;100109.53;4958423;28;20051;-96
2023/04/02 06:20:52;;;;;;;32.35;15.73;;;;;;;13.46;91.81;100114.91;4945958;28;20050;-95
2023/04/02 06:23:45;;;;;;;28.70;15.65;;;;;;;13.57;90.44;100121.81;4945469;28;20054;-96
2023/04/02 06:26:34;;;;;;;27.05;14.77;;;;;;;13.66;90.61;100133.72;4945223;28;20058;-94
2023/04/02 06:29:24;;;;;;;29.90;15.90;;;;;;;13.55;90.78;100129.56;4944407;28;20051;-95
2023/04/02 06:31:58;;;;;;;28.55;15.95;;;;;;;13.79;88.94;100133.97;4945745;28;20047;-95
2023/04/02 06:34:29;;;;;;;26.42;14.65;;;;;;;13.51;90.29;100137.63;4944372;28;20054;-95
2023/04/02 06:37:26;;;;;;;31.02;16.30;;;;;;;13.51;89.72;100153.31;4945371;29;20043;-95
2023/04/02 06:40:41;;;;;;;30.33;15.75;;;;;;;13.42;89.89;100153.19;4951535;29;20078;-95
2023/04/02 06:43:40;;;;;;;31.45;15.77;;;;;;;13.45;87.74;100166.34;4923537;29;20047;-96
2023/04/02 06:46:31;;;;;;;29.63;16.05;;;;;;;13.33;88.62;100166.84;4939305;28;20059;-95
2023/04/02 06:49:23;;;;;;;26.70;15.23;;;;;;;13.40;89.01;100152.69;4928454;28;20059;-96
2023/04/02 06:51:59;;;;;;;29.85;16.02;;;;;;;13.77;88.46;100141.69;4946952;29;20051;-95
2023/04/02 06:54:31;;;;;;;32.25;16.17;;;;;;;13.78;89.26;100151.59;4940940;28;20047;-90
2023/04/02 06:57:06;;;;;;;27.90;16.67;;;;;;;13.78;90.54;100154.34;4938197;28;20042;-91
2023/04/02 06:59:40;;;;;;;;;;;;;;;13.65;91.21;100162.31;4937963;28;20058;-86
2023/04/02 07:02:25;;;;;;;27.75;14.77;;;;;;;13.44;92.68;100171.00;4953959;28;19922;-93
2023/04/02 07:05:02;;;;;;;32.60;16.00;;;;;;;13.47;92.78;100175.09;4937990;28;20061;-86
2023/04/02 07:07:32;;;;;;;30.00;15.73;;;;;;;13.71;90.94;100187.75;4941039;28;20406;-89
2023/04/02 07:10:05;;;;;;;29.80;15.07;;;;;;;13.62;90.83;100179.44;4938372;28;20050;-92
2023/04/02 07:12:33;;;;;;;30.88;14.95;;;;;;;13.86;89.73;100181.09;4953042;28;20054;-85
2023/04/02 07:15:03;;;;;;;27.10;14.38;;;;;;;13.72;89.99;100199.59;4936278;28;20055;-86
2023/04/02 07:17:32;;;;;;;24.80;14.63;;;;;;;13.68;90.24;100189.19;4937611;28;20055;-82
2023/04/02 07:20:00;;;;;;;27.40;15.55;;;;;;;13.89;88.76;100198.91;4940525;28;20074;-83
2023/04/02 07:22:30;;;;;;;26.15;13.65;;;;;;;14.07;88.60;100197.06;4939080;28;20059;-83
2023/04/02 07:25:02;;;;;;;27.92;14.95;;;;;;;14.10;86.50;100201.97;4935531;28;20043;-88
2023/04/02 07:27:41;;;;;;;24.58;13.88;;;;;;;13.94;87.37;100218.84;4948555;28;20047;-91
2023/04/02 07:30:09;;;;;;;22.33;13.90;;;;;;;14.14;87.03;100211.22;4938096;28;20050;-88
2023/04/02 07:32:37;;;;;;;27.10;14.75;;;;;;;14.03;89.59;100215.34;4938823;28;20069;-87
2023/04/02 07:35:07;;;;;;;26.70;14.63;;;;;;;14.16;88.63;100219.16;4937462;28;20057;-86
2023/04/02 07:37:36;;;;;;;24.52;14.35;;;;;;;13.93;88.55;100225.47;4952579;28;20047;-86
2023/04/02 07:40:08;;;;;;;26.27;14.80;;;;;;;14.00;88.88;100235.22;4965923;28;20490;-86
2023/04/02 07:42:35;;;;;;;25.08;14.90;;;;;;;14.04;88.61;100234.31;4971040;28;20050;-89
2023/04/02 07:45:04;;;;;;;26.10;14.23;;;;;;;13.98;89.40;100239.09;4957351;28;20035;-88
2023/04/02 07:47:32;;;;;;;29.80;13.82;;;;;;;13.91;90.40;100249.72;4971972;28;20414;-88
2023/04/02 07:50:00;;;;;;;29.35;16.05;;;;;;;14.16;90.23;100247.50;4954683;28;20051;-88
2023/04/02 07:52:28;;;;;;;23.95;14.70;;;;;;;14.22;88.02;100249.00;4955272;28;20058;-88
2023/04/02 07:54:56;;;;;;;25.10;13.20;;;;;;;14.42;87.37;100251.56;4971054;28;20508;-88
2023/04/02 07:57:24;;;;;;;24.23;13.55;;;;;;;14.27;87.83;100258.25;4955845;28;20047;-92
2023/04/02 07:59:55;;;;;;;29.20;14.25;;;;;;;14.57;87.29;100258.59;4939433;28;20058;-94
2023/04/02 08:02:25;;;;;;;24.02;13.75;;;;;;;14.33;88.65;100255.03;4956294;28;20050;-94
2023/04/02 08:04:53;;;;;;;21.27;13.00;;;;;;;14.68;86.34;100267.41;4940489;28;20055;-94
2023/04/02 08:07:21;;;;;;;30.52;13.20;;;;;;;14.63;86.11;100266.41;4956866;28;20047;-93
2023/04/02 08:09:49;;;;;;;21.75;12.73;;;;;;;14.45;85.75;100268.25;4955050;28;20516;-94
2023/04/02 08:12:17;;;;;;;22.67;13.05;;;;;;;14.56;84.54;100276.25;4939858;28;20050;-94
2023/04/02 08:14:45;;;;;;;26.55;13.43;;;;;;;14.55;84.75;100272.69;4940762;28;20051;-91
2023/04/02 08:17:13;;;;;;;28.50;13.68;;;;;;;14.49;85.34;100272.00;4969268;28;20054;-86
2023/04/02 08:19:41;;;;;;;25.30;13.95;;;;;;;14.78;84.88;100278.19;4975033;28;20047;-95
2023/04/02 08:22:21;;;;;;;24.17;13.63;;;;;;;14.85;85.22;100286.00;4954800;28;20058;-94
2023/04/02 08:24:49;;;;;;;23.30;13.40;;;;;;;14.91;83.32;100284.75;4938836;28;20489;-93
2023/04/02 08:27:17;;;;;;;23.50;13.40;;;;;;;14.94;85.25;100275.84;4954262;28;20042;-93
2023/04/02 08:29:45;;;;;;;22.65;12.65;;;;;;;14.93;81.56;100287.16;4962423;28;20370;-89
2023/04/02 08:32:15;;;;;;;23.73;12.63;;;;;;;14.72;83.36;100282.19;4938972;29;20055;-92
2023/04/02 08:34:44;;;;;;;24.35;12.52;;;;;;;14.78;84.69;100286.47;4945060;28;20062;-95
2023/04/02 08:37:13;;;;;;;23.00;13.57;;;;;;;14.97;81.27;100296.44;4943987;28;20051;-93
2023/04/02 08:39:40;;;;;;;19.20;11.15;;;;;;;15.04;81.60;100299.53;4946370;28;20098;-95
2023/04/02 08:42:22;;;;;;;19.35;11.95;;;;;;;15.24;80.45;100313.91;4944211;28;20050;-93
2023/04/02 08:45:05;;;;;;;17.20;9.98;;;;;;;15.03;77.31;100331.81;4958892;28;20055;-90
2023/04/02 08:47:54;;;;;;;15.25;8.57;;;;;;;14.86;78.94;100327.00;4954438;28;20050;-92
2023/04/02 08:50:31;;;;;;;13.95;7.88;;;;;;;14.81;78.28;100318.88;4958867;28;20074;-92
2023/04/02 08:53:02;;;;;;;10.85;6.13;;;;;;;14.82;77.66;100322.44;4956160;28;20054;-89
2023/04/02 08:56:04;;;;;;;11.55;6.18;;;;;;;14.64;77.30;100316.78;4967809;28;20058;-90
2023/04/02 08:58:40;;;;;;;12.32;6.47;;;;;;;14.48;79.12;100292.38;4939928;28;20047;-91
2023/04/02 09:01:40;;;;;;;12.10;5.47;;;;;;;14.05;83.30;100287.38;4972256;28;20486;-91
2023/04/02 09:04:18;;;;;;;15.95;7.10;;;;;;;13.97;84.91;100292.50;4975309;28;20493;-94
2023/04/02 09:06:50;;;;;;;15.73;6.95;;;;;;;14.09;83.33;100299.41;4943585;28;20053;-95
2023/04/02 09:09:19;;;;;;;10.63;6.82;;;;;;;14.14;84.00;100307.53;4958102;28;20047;-94
2023/04/02 09:12:03;;;;;;;12.68;6.80;;;;;;;14.21;85.40;100301.59;4942760;28;20050;-93
2023/04/02 09:14:43;;;;;;;9.80;6.03;;;;;;;14.45;86.23;100317.81;4941673;28;20050;-95
2023/04/02 09:17:21;;;;;;;15.05;7.38;;;;;;;14.40;85.44;100315.19;4957881;28;20677;-93
2023/04/02 09:19:52;;;;;;;10.77;6.35;;;;;;;14.30;86.77;100318.16;4936700;29;20054;-93
2023/04/02 09:22:30;;;;;;;16.17;7.95;;;;;;;14.35;85.78;100315.28;4963494;28;20046;-94
2023/04/02 09:25:01;;;;;;;13.05;8.95;;;;;;;14.29;86.59;100313.78;4949815;29;20055;-95
2023/04/02 09:27:33;;;;;;;16.23;8.27;;;;;;;14.39;87.19;100324.56;4955749;28;20046;-94
2023/04/02 09:30:57;;;;;;;10.05;6.00;;;;;;;14.18;85.76;100330.53;4954706;29;20513;-95
2023/04/02 09:33:42;;;;;;;11.27;6.20;;;;;;;14.25;85.33;100319.09;4897733;29;20072;-95
2023/04/02 09:36:36;;;;;;;9.40;5.47;;;;;;;14.24;86.80;100321.03;4922469;29;20055;-94
2023/04/02 09:39:16;;;;;;;18.45;7.57;;;;;;;14.29;88.93;100341.31;4939828;28;20046;-95
2023/04/02 09:41:45;;;;;;;9.40;6.10;;;;;;;14.05;88.93;100337.72;4948166;28;20046;-93
2023/04/02 09:44:31;;;;;;;11.00;5.60;;;;;;;14.17;87.98;100326.16;4935470;29;20047;-95
2023/04/02 09:47:24;;;;;;;13.00;7.60;;;;;;;13.92;90.10;100333.88;4944375;28;20051;-95
2023/04/02 09:50:13;;;;;;;11.00;7.18;;;;;;;14.14;89.04;100329.56;4930116;28;20058;-96
2023/04/02 09:52:47;;;;;;;10.35;6.65;;;;;;;14.44;87.82;100334.63;4940419;29;20528;-96
2023/04/02 09:55:20;;;;;;;14.50;6.80;;;;;;;14.37;87.21;100344.13;4937464;28;20062;-95
2023/04/02 09:57:50;;;;;;;8.43;6.25;;;;;;;14.40;90.17;100336.38;4942924;28;20059;-95
2023/04/02 10:00:22;;;;;;;9.85;6.32;;;;;;;14.31;89.86;100341.81;4963589;29;20062;-96
2023/04/02 10:03:28;;;;;;;12.85;7.20;;;;;;;14.46;89.04;100327.69;4935176;29;20058;-95
2023/04/02 10:06:15;;;;;;;10.02;6.80;;;;;;;14.59;88.23;100350.78;4956486;28;20046;-94
2023/04/02 10:08:46;;;;;;;12.18;6.43;;;;;;;14.66;86.99;100331.06;4940167;28;20055;-95
2023/04/02 10:11:42;;;;;;;9.88;6.22;;;;;;;14.74;86.71;100327.59;4929154;28;20062;-96
2023/04/02 10:14:35;;;;;;;10.13;6.82;;;;;;;14.68;87.25;100317.81;4926085;28;20053;-96
2023/04/02 10:17:18;;;;;;;11.00;6.90;;;;;;;14.75;88.56;100320.13;4941975;28;20042;-93
2023/04/02 10:19:51;;;;;;;9.68;6.75;;;;;;;14.51;89.72;100316.56;4956897;28;20055;-93
2023/04/02 10:22:21;;;;;;;13.00;7.88;;;;;;;14.82;92.99;100315.00;4943304;28;20051;-93
2023/04/02 10:24:50;;;;;;;12.98;7.10;;;;;;;15.14;88.45;100320.50;4958273;28;20054;-94
2023/04/02 10:27:40;;;;;;;10.95;6.97;;;;;;;15.42;87.92;100309.25;4940160;28;20057;-93
2023/04/02 10:30:27;;;;;;;14.50;8.02;;;;;;;15.84;87.09;100309.69;4957065;28;20054;-92
2023/04/02 10:33:18;;;;;;;14.43;7.70;;;;;;;16.23;89.70;100315.41;4926052;28;20047;-93
2023/04/02 10:36:00;;;;;;;14.55;8.75;;;;;;;16.53;81.92;100320.28;4957397;28;20058;-94
2023/04/02 10:38:57;;;;;;;15.95;8.82;;;;;;;16.77;82.91;100322.50;4941502;28;20516;-94
2023/04/02 10:41:29;;;;;;;15.77;8.45;;;;;;;17.02;80.34;100313.66;4936102;28;20390;-94
2023/04/02 10:44:03;;;;;;;15.85;8.82;;;;;;;17.36;76.91;100317.47;4938572;28;20533;-92
2023/04/02 10:47:11;;;;;;;15.35;9.07;;;;;;;17.74;74.98;100329.59;4967155;28;20061;-95
2023/04/02 10:50:13;;;;;;;11.93;8.90;;;;;;;17.60;72.44;100308.53;4952231;28;20051;-93
2023/04/02 10:52:53;;;;;;;14.85;8.63;;;;;;;17.64;75.91;100311.44;4942528;28;20051;-94
2023/04/02 10:55:27;;;;;;;11.70;7.78;;;;;;;17.41;74.44;100314.50;4942361;28;20490;-96
2023/04/02 10:58:04;;;;;;;14.77;8.90;;;;;;;17.37;72.19;100299.72;4937327;28;20058;-94
2023/04/02 11:00:44;;;;;;;16.48;8.48;;;;;;;17.71;71.62;100308.94;4940647;28;20057;-95
2023/04/02 11:03:28;;;;;;;18.17;8.98;;;;;;;17.97;71.66;100309.94;4932753;28;20043;-94
2023/04/02 11:06:01;;;;;;;14.30;8.65;;;;;;;17.94;71.96;100321.69;4953393;28;20054;-94
2023/04/02 11:08:42;;;;;;;11.30;7.82;;;;;;;18.07;70.12;100326.16;4940116;28;20426;-94
2023/04/02 11:11:21;;;;;;;11.95;7.28;;;;;;;18.18;67.11;100334.88;4946881;28;20050;-93
2023/04/02 11:14:02;;;;;;;10.07;7.10;;;;;;;18.60;67.95;100334.03;4959487;28;20047;-95
2023/04/02 11:16:40;;;;;;;21.40;7.53;;;;;;;18.63;65.09;100335.31;4943997;28;20493;-95
2023/04/02 11:19:17;;;;;;;12.93;6.57;;;;;;;18.80;63.69;100345.41;4933888;29;20059;-92
2023/04/02 11:21:45;;;;;;;16.83;8.30;;;;;;;19.36;61.06;100358.03;4952666;28;20407;-94
2023/04/02 11:24:35;;;;;;;18.42;8.13;;;;;;;19.22;61.73;100368.63;4954417;28;20070;-94
2023/04/02 11:27:13;;;;;;;13.10;7.00;;;;;;;18.97;60.35;100372.13;4958001;28;20040;-94
2023/04/02 11:29:45;;;;;;;13.50;7.45;;;;;;;19.04;63.05;100375.19;4956514;28;20049;-94
2023/04/02 11:32:21;;;;;;;13.15;7.40;;;;;;;18.83;62.13;100377.19;4940973;28;20059;-93
2023/04/02 11:34:50;;;;;;;11.38;6.80;;;;;;;18.68;63.29;100387.75;4935316;29;20043;-92
2023/04/02 11:37:43;;;;;;;12.35;7.38;;;;;;;18.36;62.40;100387.38;4941165;29;20051;-91
2023/04/02 11:40:14;;;;;;;12.32;6.93;;;;;;;18.12;61.52;100391.59;4937861;28;20050;-91
2023/04/02 11:42:49;;;;;;;10.43;6.30;;;;;;;17.65;60.54;100412.66;4957777;28;20051;-93
2023/04/02 11:45:30;;;;;;;6.65;4.40;;;;;;;17.14;56.47;100429.94;4956587;28;20050;-92
2023/04/02 11:48:16;;;;;;;1.25;1.15;;;;;;;16.59;56.00;100407.38;4935053;28;20047;-90
2023/04/02 11:50:45;;;;;;;1.88;1.50;;;;;;;16.53;56.06;100406.69;4935619;29;20050;-91
2023/04/02 11:53:19;;;;;;;0.70;0.70;;;;;;;16.22;55.69;100413.19;4939185;28;20061;-92
2023/04/02 11:56:02;;;;;;;0.38;0.38;;;;;;;15.88;54.50;100424.94;4970569;28;20050;-93
2023/04/02 11:58:48;;;;;;;5.57;0.70;;;;;;;15.61;60.41;100419.31;4952887;29;20055;-91
2023/04/02 12:01:30;;;;;;;4.07;0.82;;;;;;;14.53;69.48;100431.91;4957116;28;20047;-84
2023/04/02 12:04:29;;;;;;;0.77;0.50;;;;;;;14.48;71.96;100416.28;4962724;28;20409;-86
2023/04/02 12:07:16;;;;;;;2.92;0.47;;;;;;;14.36;73.83;100397.56;4960265;28;20050;-94
2023/04/02 12:09:57;;;;;;;1.08;0.50;;;;;;;14.60;75.17;100401.16;4945073;28;20063;-92
2023/04/02 12:12:31;;;;;;;2.30;0.50;;;;;;;14.65;75.33;100398.28;4930126;28;20053;-91
2023/04/02 12:15:00;;;;;;;1.40;0.77;;;;;;;14.70;75.03;100398.16;4942632;28;20054;-92